Wednesday, December 12, 2018, 10:57 PM EST
Back to Local

KFRG, Farmingdale Republic Airport

Location: Farmingdale, NY, United States Lat: 40.733
Local Time: 10:57 PM EST ( 3:57 GMT) Lon: -73.417
Time Zone: US/Eastern Elev: 82 ft

Show me the last for .
Show Coded

Time T Td Feel RH Dir Speed Gust Alt SLP Vis Weather Sky Remarks
2018-12-12 21:53 30 23 26 74 310° 3 - 30.26 30.27 9 CLR None
2018-12-12 20:53 31 23 - 72 - Calm - 30.25 30.25 9 CLR None
2018-12-12 19:53 33 23 - 66 - Calm - 30.24 30.24 10 CLR None
2018-12-12 18:53 34 23 31 63 280° 3 - 30.22 30.22 10 CLR 6-hr Min Temp (7pm): 34.0°F
6-hr Max Temp (7pm): 39.9°F
2018-12-12 17:53 35 23 32 61 330° 3 - 30.20 30.20 10 CLR None
2018-12-12 16:53 36 22 32 56 290° 5 - 30.18 30.18 10 CLR None
2018-12-12 15:53 38 21 31 50 310° 9 - 30.15 30.15 10 CLR None
2018-12-12 14:53 40 21 34 46 310° 9 - 30.13 30.13 10 BKN045 None
2018-12-12 13:53 40 21 31 46 Variable 7 16 30.12 30.12 10 OVC044 None
2018-12-12 12:53 39 21 35 48 330° 6 - 30.11 30.11 10 OVC043 6-hr Min Temp (1pm): 30.0°F
6-hr Max Temp (1pm): 39.9°F
2018-12-12 11:53 39 21 33 48 340° 9 - 30.11 30.11 10 BKN043 None
2018-12-12 10:53 39 22 32 49 330° 10 - 30.12 30.12 10 FEW040 None
2018-12-12 09:53 37 23 27 56 300° 10 18 30.13 30.13 10 CLR None
2018-12-12 08:53 34 23 27 63 300° 9 - 30.11 30.11 10 CLR None
2018-12-12 07:53 31 23 25 72 300° 6 - 30.08 30.08 9 CLR None
2018-12-12 06:53 31 22 26 68 300° 5 - 30.05 30.05 10 CLR 6-hr Min Temp (7am): 30.9°F
6-hr Max Temp (7am): 34.0°F
2018-12-12 05:53 31 22 24 68 290° 7 - 30.03 30.02 10 OVC070 None
2018-12-12 04:53 31 22 23 68 300° 8 - 30.00 30.00 10 BKN075 None
2018-12-12 03:53 32 21 24 63 300° 9 - 29.99 29.98 10 OVC070 None
2018-12-12 02:53 33 20 25 58 300° 9 - 29.98 29.98 10 OVC070 None
2018-12-12 01:53 33 20 26 58 310° 8 - 29.96 29.96 10 OVC065 None
2018-12-12 00:53 33 20 22 58 300° 9 17 29.95 29.95 10 BKN065 6-hr Min Temp (1am): 30.9°F
6-hr Max Temp (1am): 34.0°F
2018-12-11 23:53 33 21 27 60 300° 7 - 29.95 29.94 10 OVC060 24-hr Min Temp (12am): 24.1°F
24-hr Max Temp (12am): 41.0°F

Support USWX by starting your Amazon purchase here.